Time;durP1;ratioP1;P1;durP2;ratioP2;P2;SDS_P1;SDS_P2;PMS_P1;PMS_P2;Temp;Humidity;BMP_temperature;BMP_pressure;BME280_temperature;BME280_humidity;BME280_pressure;Samples;Min_cycle;Max_cycle;Signal;HPM_P1;HPM_P2
2022/03/05 00:00:01;;;;;;;3.95;3.22;;;;;;;16.36;31.78;93426.59;4936753;28;20065;-88
2022/03/05 00:02:26;;;;;;;3.85;3.42;;;;;;;16.31;31.88;93429.31;4935788;28;20034;-89
2022/03/05 00:04:52;;;;;;;6.25;3.38;;;;;;;16.33;32.04;93435.00;4952700;28;20506;-88
2022/03/05 00:07:19;;;;;;;4.40;3.55;;;;;;;16.36;31.57;93423.84;4951484;28;20031;-89
2022/03/05 00:09:45;;;;;;;4.13;3.00;;;;;;;16.31;32.25;93421.88;4936475;28;20047;-88
2022/03/05 00:12:10;;;;;;;3.63;3.20;;;;;;;16.31;31.75;93421.13;4936226;28;20053;-90
2022/03/05 00:14:36;;;;;;;5.07;3.42;;;;;;;16.31;31.74;93421.88;4936401;28;20414;-90
2022/03/05 00:17:01;;;;;;;4.28;3.20;;;;;;;16.35;31.91;93433.28;4936772;28;20047;-88
2022/03/05 00:19:27;;;;;;;4.75;3.25;;;;;;;16.28;31.77;93430.28;4935640;28;20296;-89
2022/03/05 00:21:54;;;;;;;4.72;3.42;;;;;;;16.29;32.01;93437.97;4952699;28;20047;-88
2022/03/05 00:24:19;;;;;;;4.22;3.22;;;;;;;16.29;32.16;93434.50;4938656;29;20520;-89
2022/03/05 00:26:45;;;;;;;4.03;3.25;;;;;;;16.29;32.19;93432.53;4933806;29;20047;-88
2022/03/05 00:29:11;;;;;;;5.15;3.08;;;;;;;16.29;31.90;93437.25;4932420;29;20094;-90
2022/03/05 00:31:37;;;;;;;4.45;3.67;;;;;;;16.31;31.93;93434.75;4917341;29;20035;-89
2022/03/05 00:34:02;;;;;;;5.53;3.17;;;;;;;16.30;31.85;93425.84;4916667;29;20116;-88
2022/03/05 00:36:27;;;;;;;4.70;3.53;;;;;;;16.30;31.79;93430.53;4933574;29;20490;-88
2022/03/05 00:38:53;;;;;;;5.50;3.67;;;;;;;16.29;31.88;93432.53;4917171;29;20075;-89
2022/03/05 00:41:18;;;;;;;5.20;3.88;;;;;;;16.30;32.19;93434.00;4918632;28;20043;-91
2022/03/05 00:43:44;;;;;;;4.80;3.35;;;;;;;16.30;31.83;93436.00;4951755;28;20035;-89
2022/03/05 00:46:09;;;;;;;4.95;2.88;;;;;;;16.28;32.01;93433.75;4927872;28;20074;-89
2022/03/05 00:48:34;;;;;;;4.93;3.08;;;;;;;16.35;31.81;93432.53;4916662;29;20082;-89
2022/03/05 00:51:00;;;;;;;3.63;3.08;;;;;;;16.29;31.69;93437.97;4922421;28;20043;-88
2022/03/05 00:53:25;;;;;;;5.00;3.25;;;;;;;16.30;31.66;93423.09;4951650;28;20038;-88
2022/03/05 00:55:51;;;;;;;4.63;3.30;;;;;;;16.27;31.84;93429.53;4951972;28;20035;-89
2022/03/05 00:58:16;;;;;;;4.00;2.90;;;;;;;16.27;32.30;93426.06;4936863;28;20035;-88
2022/03/05 01:00:41;;;;;;;4.93;3.40;;;;;;;16.29;31.86;93429.06;4939663;28;20050;-89
2022/03/05 01:03:07;;;;;;;5.03;3.42;;;;;;;16.26;31.66;93428.06;4938565;28;20789;-88
2022/03/05 01:05:32;;;;;;;5.13;3.13;;;;;;;16.29;32.18;93427.06;4939495;28;20050;-89
2022/03/05 01:07:58;;;;;;;5.22;3.60;;;;;;;16.33;32.17;93424.09;4939838;28;20039;-88
2022/03/05 01:10:23;;;;;;;4.93;3.42;;;;;;;16.32;31.99;93423.34;4938048;28;20042;-89
2022/03/05 01:12:49;;;;;;;4.47;3.38;;;;;;;16.28;31.76;93419.38;4923676;28;20394;-88
2022/03/05 01:15:14;;;;;;;4.45;3.38;;;;;;;16.27;31.94;93415.16;4939450;28;20066;-89
2022/03/05 01:17:40;;;;;;;5.20;3.50;;;;;;;16.26;32.00;93414.41;4923489;28;20041;-89
2022/03/05 01:20:07;;;;;;;5.00;3.33;;;;;;;16.30;31.89;93406.00;4923231;28;20129;-88
2022/03/05 01:22:32;;;;;;;4.18;3.20;;;;;;;16.28;31.79;93403.00;4924295;28;20387;-88
2022/03/05 01:24:57;;;;;;;4.80;3.50;;;;;;;16.31;31.96;93400.03;4923461;28;20026;-89
2022/03/05 01:27:23;;;;;;;4.28;3.15;;;;;;;16.29;31.96;93399.06;4923120;28;20494;-88
2022/03/05 01:29:49;;;;;;;4.20;2.90;;;;;;;16.26;32.33;93394.59;4939184;28;20039;-89
2022/03/05 01:32:14;;;;;;;4.65;3.30;;;;;;;16.33;31.84;93405.00;4939169;28;20039;-88
2022/03/05 01:34:42;;;;;;;4.95;3.53;;;;;;;16.27;31.86;93396.06;4923448;28;20038;-89
2022/03/05 01:37:08;;;;;;;5.25;3.58;;;;;;;16.27;32.27;93399.53;4939427;28;20089;-89
2022/03/05 01:39:33;;;;;;;4.63;2.78;;;;;;;16.27;32.20;93393.34;4923577;28;20399;-89
2022/03/05 01:41:59;;;;;;;4.13;3.30;;;;;;;16.31;31.81;93402.03;4935924;29;20047;-89
2022/03/05 01:44:25;;;;;;;5.60;3.10;;;;;;;16.26;32.20;93394.59;4919384;28;20036;-88
2022/03/05 01:46:50;;;;;;;3.58;2.88;;;;;;;16.28;32.25;93398.31;4939497;28;20133;-90
2022/03/05 01:49:15;;;;;;;3.47;2.95;;;;;;;16.30;32.17;93398.56;4922849;28;20054;-89
2022/03/05 01:51:41;;;;;;;3.97;2.78;;;;;;;16.28;31.90;93394.84;4919842;29;20042;-90
2022/03/05 01:54:07;;;;;;;4.50;3.33;;;;;;;16.25;31.87;93393.84;4919230;29;20042;-88
2022/03/05 01:56:32;;;;;;;4.20;3.13;;;;;;;16.24;32.02;93392.34;4935759;29;20644;-88
2022/03/05 01:58:58;;;;;;;4.55;3.22;;;;;;;16.23;31.98;93390.88;4903980;29;20027;-91
2022/03/05 02:01:24;;;;;;;4.07;3.20;;;;;;;16.29;31.94;93394.34;4903597;29;20118;-88
2022/03/05 02:03:51;;;;;;;3.30;2.65;;;;;;;16.26;32.09;93394.59;4935437;29;20167;-89
2022/03/05 02:06:16;;;;;;;4.95;3.53;;;;;;;16.25;31.90;93395.81;4919505;29;20524;-89
2022/03/05 02:08:42;;;;;;;4.28;3.15;;;;;;;16.23;32.34;93390.88;4903619;29;20039;-88
2022/03/05 02:11:07;;;;;;;3.95;2.60;;;;;;;16.24;31.91;93389.63;4921212;28;20047;-89
2022/03/05 02:13:32;;;;;;;3.53;2.88;;;;;;;16.22;32.28;93389.41;4938283;28;20049;-89
2022/03/05 02:15:58;;;;;;;4.85;3.08;;;;;;;16.23;32.22;93388.16;4921202;28;20047;-89
2022/03/05 02:18:23;;;;;;;4.90;3.38;;;;;;;16.23;32.23;93393.63;4919693;28;20046;-89
2022/03/05 02:20:51;;;;;;;3.92;2.90;;;;;;;16.22;32.16;93388.66;4934779;29;20031;-88
2022/03/05 02:23:17;;;;;;;4.13;2.95;;;;;;;16.22;32.30;93388.66;4940350;28;20089;-89
2022/03/05 02:25:53;;;;;;;3.45;2.65;;;;;;;16.20;32.29;93389.16;4969861;28;20430;-89
2022/03/05 02:28:19;;;;;;;4.80;3.55;;;;;;;16.21;32.33;93393.38;4953809;28;20050;-89
2022/03/05 02:30:45;;;;;;;4.07;3.20;;;;;;;16.25;31.94;93390.38;4938145;28;20089;-88
2022/03/05 02:33:10;;;;;;;4.20;2.95;;;;;;;16.29;32.00;93390.88;4953482;28;20047;-88
2022/03/05 02:35:36;;;;;;;4.07;3.22;;;;;;;16.25;32.13;93379.47;4938140;28;20042;-88
2022/03/05 02:38:01;;;;;;;4.43;3.38;;;;;;;16.24;32.38;93394.34;4938775;28;20257;-92
2022/03/05 02:40:26;;;;;;;4.35;3.00;;;;;;;16.23;32.21;93390.16;4937686;28;20042;-89
2022/03/05 02:42:52;;;;;;;3.78;2.80;;;;;;;16.21;32.19;93392.63;4939928;29;20055;-88
2022/03/05 02:45:17;;;;;;;5.40;3.53;;;;;;;16.21;32.08;93390.63;4919129;28;20549;-88
2022/03/05 02:47:43;;;;;;;5.25;3.60;;;;;;;16.25;32.09;93390.38;4938013;28;20042;-88
2022/03/05 02:50:08;;;;;;;3.88;3.25;;;;;;;16.25;31.95;93385.66;4937222;28;20039;-88
2022/03/05 02:52:34;;;;;;;4.55;3.50;;;;;;;16.25;32.22;93384.91;4923668;29;20043;-89
2022/03/05 02:54:59;;;;;;;4.43;2.85;;;;;;;16.24;32.28;93378.72;4918835;29;20043;-89
2022/03/05 02:57:25;;;;;;;5.47;3.40;;;;;;;16.24;32.20;93384.16;4933843;29;20035;-88
2022/03/05 02:59:50;;;;;;;4.07;3.03;;;;;;;16.26;32.25;93395.31;4918636;29;20039;-88
2022/03/05 03:02:17;;;;;;;4.32;3.33;;;;;;;16.31;32.05;93385.66;4933648;29;20032;-88
2022/03/05 03:04:42;;;;;;;3.55;2.80;;;;;;;16.26;32.16;93389.13;4918883;29;20513;-88
2022/03/05 03:07:07;;;;;;;4.95;3.20;;;;;;;16.27;32.10;93387.88;4917919;29;20336;-89
2022/03/05 03:09:33;;;;;;;3.88;2.97;;;;;;;16.24;32.21;93381.44;4940072;28;20054;-88
2022/03/05 03:11:58;;;;;;;4.78;3.30;;;;;;;16.21;32.32;93387.91;4937606;28;20102;-89
2022/03/05 03:14:24;;;;;;;3.85;2.75;;;;;;;16.23;32.43;93392.88;4920941;28;20038;-89
2022/03/05 03:16:49;;;;;;;4.50;3.35;;;;;;;16.21;32.26;93393.38;4937259;28;20030;-88
2022/03/05 03:19:14;;;;;;;5.43;3.22;;;;;;;16.23;32.18;93390.16;4937286;28;20545;-88
2022/03/05 03:21:43;;;;;;;4.85;3.20;;;;;;;16.22;32.08;93383.19;4951654;28;20042;-88
2022/03/05 03:24:08;;;;;;;4.28;3.20;;;;;;;16.22;32.30;93372.28;4937297;28;20478;-90
2022/03/05 03:26:33;;;;;;;4.78;3.55;;;;;;;16.26;32.27;93386.41;4936909;28;20039;-89
2022/03/05 03:29:00;;;;;;;4.15;3.15;;;;;;;16.21;32.25;93379.72;4937363;28;20050;-88
2022/03/05 03:31:26;;;;;;;5.65;3.60;;;;;;;16.26;32.28;93381.69;4920683;28;20042;-89
2022/03/05 03:33:52;;;;;;;6.00;3.45;;;;;;;16.22;32.11;93378.50;4937986;28;20046;-88
2022/03/05 03:36:17;;;;;;;4.50;3.20;;;;;;;16.24;32.29;93373.25;4920471;28;20034;-89
2022/03/05 03:38:43;;;;;;;5.03;3.67;;;;;;;16.23;32.15;93384.69;4921280;28;20038;-89
2022/03/05 03:41:08;;;;;;;4.30;2.95;;;;;;;16.20;32.22;93375.50;4935602;28;20077;-88
2022/03/05 03:43:34;;;;;;;4.55;2.90;;;;;;;16.22;32.25;93386.69;4933838;29;20031;-89
2022/03/05 03:45:59;;;;;;;4.80;3.38;;;;;;;16.22;32.21;93385.94;4921247;28;20039;-88
2022/03/05 03:48:25;;;;;;;5.05;3.20;;;;;;;16.22;32.47;93386.69;4936415;28;20039;-88
2022/03/05 03:50:50;;;;;;;4.63;3.55;;;;;;;16.19;32.25;93376.00;4920869;28;20031;-89
2022/03/05 03:53:16;;;;;;;4.30;3.20;;;;;;;16.18;32.47;93378.00;4931258;29;20490;-89
2022/03/05 03:55:41;;;;;;;4.30;2.90;;;;;;;16.22;32.26;93375.03;4917904;29;20071;-89
2022/03/05 03:58:07;;;;;;;5.85;3.70;;;;;;;16.20;32.33;93377.50;4933040;29;20434;-92
2022/03/05 04:00:32;;;;;;;3.72;2.92;;;;;;;16.20;32.19;93380.22;4902323;29;20502;-89
2022/03/05 04:02:58;;;;;;;3.65;2.75;;;;;;;16.24;32.23;93375.97;4933593;29;20581;-90
2022/03/05 04:05:23;;;;;;;4.65;3.55;;;;;;;16.21;32.32;93377.00;4917413;29;20125;-89
2022/03/05 04:10:32;;;;;;;4.50;3.05;;;;;;;16.19;32.26;93376.75;4925075;29;20046;-89
2022/03/05 04:12:58;;;;;;;5.53;3.70;;;;;;;16.22;32.09;93355.94;4933339;29;20039;-89
2022/03/05 04:15:24;;;;;;;4.25;3.20;;;;;;;16.19;32.16;93365.09;4932921;29;20035;-89
2022/03/05 04:17:50;;;;;;;3.97;3.33;;;;;;;16.25;32.35;93363.84;4917599;29;20525;-88
2022/03/05 04:20:17;;;;;;;4.22;2.90;;;;;;;16.20;32.38;93378.25;4933030;29;20039;-88
2022/03/05 04:22:42;;;;;;;5.82;3.08;;;;;;;16.19;31.54;93378.75;4917501;29;20043;-89
2022/03/05 04:25:08;;;;;;;4.88;3.30;;;;;;;16.19;32.34;93376.00;4948989;29;20039;-89
2022/03/05 04:27:34;;;;;;;4.25;2.85;;;;;;;16.21;32.44;93377.00;4932869;29;20514;-88
2022/03/05 04:29:59;;;;;;;3.95;2.78;;;;;;;16.24;32.33;93375.28;4949360;29;20054;-88
2022/03/05 04:32:24;;;;;;;3.33;2.58;;;;;;;16.19;32.13;93370.56;4948152;29;20492;-88
2022/03/05 04:34:50;;;;;;;6.22;3.13;;;;;;;16.20;32.09;93375.50;4949046;29;20460;-88
2022/03/05 04:37:15;;;;;;;4.22;3.50;;;;;;;16.18;32.37;93372.53;4948645;29;20043;-88
2022/03/05 04:39:41;;;;;;;5.18;3.38;;;;;;;16.23;32.29;93373.78;4948585;29;20466;-89
2022/03/05 04:42:06;;;;;;;4.22;3.00;;;;;;;16.24;32.24;93386.19;4940058;29;20086;-90
2022/03/05 04:44:32;;;;;;;3.75;2.67;;;;;;;16.20;32.02;93380.97;4929911;29;20060;-89
2022/03/05 04:46:57;;;;;;;4.07;2.92;;;;;;;16.19;31.99;93373.28;4944162;29;20042;-88
2022/03/05 04:49:23;;;;;;;5.32;3.60;;;;;;;16.17;32.30;93378.50;4947775;29;20039;-89
2022/03/05 04:51:48;;;;;;;4.85;3.20;;;;;;;16.18;32.30;93382.69;4944841;29;20032;-89
2022/03/05 04:54:13;;;;;;;4.20;2.95;;;;;;;16.23;32.33;93379.97;4913696;29;20040;-89
2022/03/05 04:56:39;;;;;;;3.70;2.83;;;;;;;16.19;32.33;93390.38;4930019;29;20028;-90
2022/03/05 04:59:04;;;;;;;6.22;3.50;;;;;;;16.22;32.47;93386.69;4913375;29;20495;-88
2022/03/05 05:01:30;;;;;;;4.63;3.00;;;;;;;16.24;32.46;93386.91;4913563;29;20436;-88
2022/03/05 05:03:55;;;;;;;4.85;3.80;;;;;;;16.21;32.17;93392.63;4913545;29;20075;-88
2022/03/05 05:06:21;;;;;;;5.15;3.40;;;;;;;16.17;32.31;93397.56;4898099;29;20067;-91
2022/03/05 05:08:46;;;;;;;4.85;3.40;;;;;;;16.15;32.46;93389.88;4930432;28;20515;-89
2022/03/05 05:11:12;;;;;;;6.63;3.42;;;;;;;16.17;32.77;93394.84;4935327;28;20514;-91
2022/03/05 05:13:38;;;;;;;5.97;3.63;;;;;;;16.23;32.31;93399.06;4919936;28;20529;-89
2022/03/05 05:16:05;;;;;;;4.53;3.10;;;;;;;16.22;32.21;93397.59;4936011;28;20043;-88
2022/03/05 05:18:32;;;;;;;5.53;3.90;;;;;;;16.24;32.27;93397.81;4919933;28;20035;-88
2022/03/05 05:20:59;;;;;;;5.22;3.60;;;;;;;16.20;32.49;93402.03;4936934;28;20039;-89
2022/03/05 05:23:25;;;;;;;4.03;3.22;;;;;;;16.18;32.62;93401.78;4929211;29;20074;-88
2022/03/05 05:25:50;;;;;;;4.70;3.45;;;;;;;16.20;32.61;93400.06;4933271;29;20047;-89
2022/03/05 05:28:15;;;;;;;4.60;3.25;;;;;;;16.19;31.98;93393.13;4932092;29;20578;-88
2022/03/05 05:30:41;;;;;;;5.20;3.50;;;;;;;16.15;32.35;93400.81;4901157;29;20039;-90
2022/03/05 05:33:06;;;;;;;4.80;3.28;;;;;;;16.15;32.51;93408.97;4932065;29;20042;-91
2022/03/05 05:35:32;;;;;;;4.22;3.00;;;;;;;16.20;32.43;93410.97;4932749;29;20042;-89
2022/03/05 05:37:57;;;;;;;5.30;3.78;;;;;;;16.18;32.49;93404.53;4916826;29;20066;-89
2022/03/05 05:40:22;;;;;;;4.38;3.38;;;;;;;16.21;32.35;93412.47;4932029;29;20486;-89
2022/03/05 05:42:48;;;;;;;3.92;2.90;;;;;;;16.17;32.23;93409.22;4930120;28;20042;-89
2022/03/05 05:45:13;;;;;;;5.55;3.50;;;;;;;16.19;32.24;93411.47;4951645;28;20042;-89
2022/03/05 05:47:39;;;;;;;4.32;3.03;;;;;;;16.17;32.43;93411.97;4931767;28;20081;-89
2022/03/05 05:50:05;;;;;;;5.68;3.40;;;;;;;16.17;32.41;93413.94;4948710;29;20050;-89
2022/03/05 05:52:30;;;;;;;4.50;2.95;;;;;;;16.20;31.99;93421.13;4923678;29;20063;-89
2022/03/05 05:54:56;;;;;;;5.03;3.15;;;;;;;16.20;32.09;93415.69;4919806;29;20415;-89
2022/03/05 05:57:21;;;;;;;4.25;3.42;;;;;;;16.17;32.50;93422.13;4919725;29;20050;-90
2022/03/05 05:59:46;;;;;;;4.95;3.45;;;;;;;16.21;32.29;93420.66;4935950;29;20039;-91
2022/03/05 06:02:12;;;;;;;5.50;3.55;;;;;;;16.17;32.37;93414.69;4919341;29;20040;-88
2022/03/05 06:04:37;;;;;;;5.35;3.55;;;;;;;16.16;32.40;93415.94;4919806;29;20027;-89
2022/03/05 06:07:03;;;;;;;4.18;3.35;;;;;;;16.17;32.48;93416.66;4919054;29;20161;-89
2022/03/05 06:09:28;;;;;;;4.75;3.60;;;;;;;16.16;32.08;93424.09;4921815;29;20046;-89
2022/03/05 06:11:54;;;;;;;4.25;2.92;;;;;;;16.19;32.32;93420.38;4926273;28;20046;-87
2022/03/05 06:14:19;;;;;;;18.58;13.40;;;;;;;16.18;32.50;93413.44;4920921;28;20031;-88
2022/03/05 06:16:44;;;;;;;5.05;3.40;;;;;;;16.16;32.25;93418.66;4936889;28;20078;-88
2022/03/05 06:19:10;;;;;;;9.40;6.55;;;;;;;16.17;32.19;93416.66;4922172;29;20043;-91
2022/03/05 06:21:35;;;;;;;5.20;3.78;;;;;;;16.16;32.06;93415.94;4901925;29;20042;-88
2022/03/05 06:24:01;;;;;;;5.18;3.78;;;;;;;16.16;32.35;93426.09;4928435;28;20070;-88
2022/03/05 06:26:28;;;;;;;6.35;4.32;;;;;;;16.17;32.19;93424.84;4916499;29;20039;-88
2022/03/05 06:28:54;;;;;;;6.13;3.95;;;;;;;16.20;32.51;93430.06;4903906;29;20039;-90
2022/03/05 06:31:19;;;;;;;6.55;4.55;;;;;;;16.21;32.30;93430.81;4903979;29;20134;-88
2022/03/05 06:33:45;;;;;;;6.47;4.03;;;;;;;16.20;32.25;93434.78;4919285;29;20055;-88
2022/03/05 06:36:10;;;;;;;6.50;4.43;;;;;;;16.18;32.52;93435.25;4934173;28;20041;-90
2022/03/05 06:38:36;;;;;;;5.57;4.20;;;;;;;16.16;32.30;93424.09;4922682;28;20030;-90
2022/03/05 06:41:01;;;;;;;6.40;4.07;;;;;;;16.17;32.36;93439.22;4926519;28;20094;-89
2022/03/05 06:43:26;;;;;;;5.97;4.22;;;;;;;16.16;32.52;93428.81;4937889;28;20050;-89
2022/03/05 06:45:52;;;;;;;6.30;4.20;;;;;;;16.18;32.60;93431.78;4922174;28;20031;-90
2022/03/05 06:48:17;;;;;;;6.20;4.43;;;;;;;16.20;32.46;93437.50;4937578;28;20311;-92
2022/03/05 06:50:43;;;;;;;5.70;4.00;;;;;;;16.17;32.26;93433.03;4938128;28;20030;-88
2022/03/05 06:53:08;;;;;;;7.25;4.93;;;;;;;16.17;32.32;93433.03;4937425;28;20073;-89
2022/03/05 06:55:33;;;;;;;5.47;3.95;;;;;;;16.19;32.49;93431.31;4918491;28;20039;-91
2022/03/05 06:57:59;;;;;;;5.93;4.07;;;;;;;16.20;32.42;93429.31;4933319;29;20027;-88
2022/03/05 07:00:24;;;;;;;7.85;4.72;;;;;;;16.20;32.28;93429.31;4933901;29;20035;-89
2022/03/05 07:02:50;;;;;;;7.28;4.90;;;;;;;16.19;32.37;93434.03;4934672;29;20066;-89
2022/03/05 07:05:15;;;;;;;5.68;4.20;;;;;;;16.26;32.30;93430.03;4933587;29;20054;-89
2022/03/05 07:07:41;;;;;;;5.88;4.13;;;;;;;16.21;32.21;93430.81;4934150;29;20082;-88
2022/03/05 07:10:07;;;;;;;11.30;7.63;;;;;;;16.13;30.70;93430.53;4933828;29;20087;-88
2022/03/05 07:12:33;;;;;;;10.00;6.72;;;;;;;16.11;31.16;93438.47;4903308;29;20114;-88
2022/03/05 07:14:59;;;;;;;10.18;6.82;;;;;;;16.07;31.69;93430.53;4934952;28;20042;-89
2022/03/05 07:17:24;;;;;;;10.57;6.97;;;;;;;16.10;31.61;93432.28;4933730;28;20073;-88
2022/03/05 07:19:51;;;;;;;12.00;7.18;;;;;;;16.09;30.90;93436.25;4918453;29;20046;-88
2022/03/05 07:22:16;;;;;;;13.52;8.38;;;;;;;16.12;30.82;93429.06;4918149;28;20506;-89
2022/03/05 07:24:42;;;;;;;10.60;7.07;;;;;;;16.11;31.02;93433.03;4937281;28;20042;-89
2022/03/05 07:27:07;;;;;;;12.60;7.90;;;;;;;16.09;31.24;93438.97;4936967;28;20042;-93
2022/03/05 07:29:32;;;;;;;13.50;7.30;;;;;;;16.13;31.37;93427.06;4921215;28;20101;-90
2022/03/05 07:31:58;;;;;;;9.10;6.28;;;;;;;16.14;31.62;93440.22;4921215;28;20546;-91
2022/03/05 07:34:24;;;;;;;8.88;5.95;;;;;;;16.12;31.99;93439.97;4920800;28;20046;-88
2022/03/05 07:36:49;;;;;;;10.73;6.03;;;;;;;16.14;31.96;93444.94;4921588;28;20039;-88
2022/03/05 07:39:14;;;;;;;8.52;5.78;;;;;;;16.14;31.85;93442.94;4921089;28;20047;-90
2022/03/05 07:41:41;;;;;;;8.88;5.80;;;;;;;16.11;31.88;93441.19;4918107;29;20091;-89
2022/03/05 07:44:06;;;;;;;10.90;6.47;;;;;;;16.10;32.00;93448.63;4933476;29;20497;-88
2022/03/05 07:46:32;;;;;;;8.30;5.68;;;;;;;16.13;31.85;93446.91;4934079;29;20054;-89
2022/03/05 07:48:58;;;;;;;8.90;6.00;;;;;;;16.10;31.75;93445.16;4917494;29;20182;-91
2022/03/05 07:51:23;;;;;;;9.40;5.75;;;;;;;16.12;31.82;93450.88;4949600;29;20043;-89
2022/03/05 07:53:49;;;;;;;9.57;6.05;;;;;;;16.11;31.64;93457.56;4923803;29;20046;-88
2022/03/05 07:56:14;;;;;;;8.80;6.32;;;;;;;16.16;31.85;93458.81;4932868;29;20047;-88
2022/03/05 07:58:40;;;;;;;10.50;6.40;;;;;;;16.15;31.59;93460.78;4933732;29;20407;-90
2022/03/05 08:01:05;;;;;;;9.05;6.18;;;;;;;16.13;31.88;93448.88;4917435;29;20050;-89
2022/03/05 08:03:30;;;;;;;10.18;6.55;;;;;;;16.13;31.87;93459.81;4917616;29;20039;-89
2022/03/05 08:05:56;;;;;;;10.95;5.63;;;;;;;16.14;31.73;93462.03;4933806;29;20046;-89
2022/03/05 08:08:21;;;;;;;7.32;5.43;;;;;;;16.12;31.87;93456.31;4916896;29;20573;-89
2022/03/05 08:10:47;;;;;;;8.60;5.38;;;;;;;16.13;32.00;93446.16;4916850;29;20039;-89
2022/03/05 08:13:12;;;;;;;8.25;5.88;;;;;;;16.20;31.59;93446.44;4901133;29;20066;-88
2022/03/05 08:15:38;;;;;;;8.80;5.95;;;;;;;16.16;31.87;93447.91;4901178;29;20042;-89
2022/03/05 08:18:03;;;;;;;8.25;5.72;;;;;;;16.15;31.65;93447.16;4933644;29;20086;-88
2022/03/05 08:20:30;;;;;;;9.10;6.40;;;;;;;16.14;31.96;93459.31;4917724;29;20039;-88
2022/03/05 08:22:56;;;;;;;7.70;5.00;;;;;;;16.16;31.98;93458.81;4917774;29;20474;-88
2022/03/05 08:25:21;;;;;;;8.70;6.03;;;;;;;16.17;32.17;93461.06;4917059;29;20066;-89
2022/03/05 08:27:47;;;;;;;10.07;6.10;;;;;;;16.15;31.72;93457.31;4917282;29;20070;-90
2022/03/05 08:30:12;;;;;;;8.80;5.90;;;;;;;16.14;31.80;93459.31;4916730;29;20086;-89
2022/03/05 08:32:38;;;;;;;7.53;5.32;;;;;;;16.15;32.04;93463.53;4916955;29;20071;-88
2022/03/05 08:35:04;;;;;;;7.60;5.57;;;;;;;16.14;31.92;93464.00;4932956;29;20035;-89
2022/03/05 08:37:29;;;;;;;6.95;5.10;;;;;;;16.20;31.93;93460.06;4917111;29;20123;-90
2022/03/05 08:39:54;;;;;;;9.45;6.20;;;;;;;16.20;31.69;93462.03;4932800;29;20530;-89
2022/03/05 08:42:20;;;;;;;7.32;5.47;;;;;;;16.21;31.59;93466.25;4910620;29;20043;-90
2022/03/05 08:44:46;;;;;;;7.53;5.20;;;;;;;16.23;32.05;93470.00;4906771;29;20062;-90
2022/03/05 08:47:11;;;;;;;8.02;5.65;;;;;;;16.19;31.97;93471.47;4907188;29;20078;-89
2022/03/05 08:49:37;;;;;;;6.63;4.82;;;;;;;16.17;31.94;93469.22;4921217;29;20424;-86
2022/03/05 08:52:02;;;;;;;8.40;5.07;;;;;;;16.22;31.86;93468.50;4897984;29;20455;-89
2022/03/05 08:54:28;;;;;;;7.53;4.82;;;;;;;16.20;31.75;93470.97;4905724;29;20431;-88
2022/03/05 08:56:54;;;;;;;7.15;5.28;;;;;;;16.20;32.02;93465.50;4883645;29;20595;-90
2022/03/05 08:59:20;;;;;;;7.93;5.55;;;;;;;16.17;32.13;93474.69;4898224;29;20480;-91
2022/03/05 09:01:45;;;;;;;7.70;5.35;;;;;;;16.17;32.06;93471.97;4894545;29;20454;-91
2022/03/05 09:04:11;;;;;;;7.32;4.70;;;;;;;16.18;31.97;93465.25;4916891;29;20396;-91
2022/03/05 09:06:37;;;;;;;7.45;5.10;;;;;;;16.21;31.88;93469.00;4913783;29;20035;-88
2022/03/05 09:09:03;;;;;;;7.07;4.95;;;;;;;16.22;32.00;93467.75;4901096;29;20118;-87
2022/03/05 09:11:28;;;;;;;6.78;5.07;;;;;;;16.24;31.79;93466.00;4922923;28;20170;-91
2022/03/05 09:13:54;;;;;;;7.97;5.28;;;;;;;16.18;32.11;93473.44;4941591;28;20050;-89
2022/03/05 09:16:19;;;;;;;6.35;4.90;;;;;;;16.24;31.87;93471.44;4904438;28;20039;-89
2022/03/05 09:18:45;;;;;;;6.28;4.40;;;;;;;16.18;31.79;93478.16;4930516;28;20030;-89
2022/03/05 09:21:12;;;;;;;6.28;4.07;;;;;;;16.18;31.84;93469.97;4923693;28;20438;-90
2022/03/05 09:23:37;;;;;;;8.35;4.82;;;;;;;16.17;32.14;93474.69;4919775;28;20047;-89
2022/03/05 09:26:03;;;;;;;7.10;4.68;;;;;;;16.19;31.81;93472.22;4905707;29;20070;-89
2022/03/05 09:28:29;;;;;;;5.72;4.13;;;;;;;16.19;32.10;93466.00;4920579;29;20078;-89
2022/03/05 09:30:55;;;;;;;7.45;4.60;;;;;;;16.17;31.97;93463.78;4920606;29;20051;-89
2022/03/05 09:33:22;;;;;;;6.20;4.85;;;;;;;16.18;32.05;93465.25;4919965;29;20067;-90
2022/03/05 09:35:49;;;;;;;7.10;4.90;;;;;;;16.21;31.63;93477.16;4921357;29;20135;-89
2022/03/05 09:38:14;;;;;;;7.03;4.78;;;;;;;16.23;31.92;93466.50;4904143;29;20114;-89
2022/03/05 09:40:39;;;;;;;7.00;5.25;;;;;;;16.21;31.67;93467.00;4920879;28;20094;-90
2022/03/05 09:43:05;;;;;;;6.47;4.28;;;;;;;16.23;31.76;93474.69;4921216;28;20062;-90
2022/03/05 09:45:30;;;;;;;6.20;4.50;;;;;;;16.21;32.22;93463.53;4938419;29;20078;-91
2022/03/05 09:47:56;;;;;;;6.03;4.20;;;;;;;16.22;31.76;93465.78;4919917;29;20051;-87
2022/03/05 09:50:24;;;;;;;6.47;4.80;;;;;;;16.27;31.93;93462.28;4919713;28;20043;-92
2022/03/05 09:52:49;;;;;;;7.00;4.63;;;;;;;16.27;32.07;93467.72;4921221;28;20513;-88
2022/03/05 09:55:15;;;;;;;6.30;4.30;;;;;;;16.23;31.82;93466.50;4970850;28;20053;-86
2022/03/05 09:57:40;;;;;;;6.30;4.15;;;;;;;16.27;31.86;93473.19;4939214;28;20146;-88
2022/03/05 10:00:06;;;;;;;5.88;4.35;;;;;;;16.26;31.82;93462.78;4939302;28;20409;-87
2022/03/05 10:02:32;;;;;;;5.75;4.32;;;;;;;16.24;31.96;93468.00;4955469;28;20113;-87
2022/03/05 10:05:20;;;;;;;7.65;4.90;;;;;;;16.23;31.89;93469.25;4938804;28;20039;-87
2022/03/05 10:08:08;;;;;;;5.75;4.32;;;;;;;16.22;31.90;93463.03;4971347;28;20038;-91
2022/03/05 10:10:47;;;;;;;5.78;4.43;;;;;;;16.22;31.82;93465.78;4953920;28;20105;-87
2022/03/05 10:13:24;;;;;;;8.15;5.50;;;;;;;16.22;32.16;93473.22;4936432;29;20114;-87
2022/03/05 10:15:51;;;;;;;6.20;4.20;;;;;;;16.23;31.95;93464.53;4935861;29;20039;-89
2022/03/05 10:18:16;;;;;;;7.45;4.45;;;;;;;16.23;31.97;93478.16;4919880;29;20036;-90
2022/03/05 10:20:48;;;;;;;5.82;3.72;;;;;;;16.26;31.77;93473.69;4919774;29;20110;-87
2022/03/05 10:23:13;;;;;;;7.18;4.47;;;;;;;16.26;31.89;93463.53;4920036;29;20050;-87
2022/03/05 10:25:44;;;;;;;6.65;3.92;;;;;;;16.24;31.91;93468.00;4919568;29;20050;-88
2022/03/05 10:28:09;;;;;;;6.35;4.45;;;;;;;16.21;31.97;93469.72;4919787;29;20041;-87
2022/03/05 10:30:38;;;;;;;7.00;3.90;;;;;;;16.22;32.13;93465.03;4952231;28;20050;-90
2022/03/05 10:33:04;;;;;;;5.40;3.80;;;;;;;16.21;31.97;93461.56;4903693;29;20122;-88
2022/03/05 10:35:29;;;;;;;5.57;3.90;;;;;;;16.21;31.98;93467.00;4919539;29;20671;-88
2022/03/05 10:37:55;;;;;;;5.82;3.92;;;;;;;16.21;31.91;93469.00;4904102;29;20050;-88
2022/03/05 10:40:30;;;;;;;7.55;4.38;;;;;;;16.27;32.02;93461.53;4918875;29;20475;-87
2022/03/05 10:43:05;;;;;;;5.65;3.83;;;;;;;16.24;32.16;93459.81;4932843;28;20047;-88
2022/03/05 10:45:47;;;;;;;5.50;3.67;;;;;;;16.23;32.14;93461.06;4923754;28;20038;-88
2022/03/05 10:48:22;;;;;;;7.28;3.70;;;;;;;16.23;32.24;93459.06;4908647;29;20031;-87
2022/03/05 10:50:47;;;;;;;6.28;4.20;;;;;;;16.22;32.09;93463.03;4952118;29;20050;-92
2022/03/05 10:53:13;;;;;;;5.80;3.80;;;;;;;16.22;32.38;93459.56;4932829;28;20125;-88
2022/03/05 10:55:38;;;;;;;5.75;3.70;;;;;;;16.25;31.84;93451.13;4921600;28;20576;-89
2022/03/05 10:58:06;;;;;;;5.63;4.38;;;;;;;16.22;32.18;93463.03;4937202;28;20402;-88
2022/03/05 11:00:32;;;;;;;5.07;4.18;;;;;;;16.22;31.86;93465.03;4962806;28;20126;-89
2022/03/05 11:03:00;;;;;;;8.30;4.55;;;;;;;16.23;32.09;93452.88;4921353;29;20103;-88
2022/03/05 11:05:26;;;;;;;5.50;4.03;;;;;;;16.27;32.25;93458.81;4934688;28;20038;-87
2022/03/05 11:07:53;;;;;;;6.72;3.70;;;;;;;16.24;31.91;93457.81;4939762;28;20471;-88
2022/03/05 11:10:18;;;;;;;6.25;4.05;;;;;;;16.27;32.16;93458.81;4937837;29;20627;-94
2022/03/05 11:12:51;;;;;;;7.13;4.10;;;;;;;16.23;32.01;93453.63;4939453;28;20043;-88
2022/03/05 11:15:18;;;;;;;5.88;3.92;;;;;;;16.23;32.14;93461.81;4939390;29;20031;-94
2022/03/05 11:17:45;;;;;;;4.93;3.45;;;;;;;16.29;32.14;93453.59;4934522;28;20039;-88
2022/03/05 11:20:11;;;;;;;4.80;3.30;;;;;;;16.23;32.42;93458.34;4923548;28;20428;-89
2022/03/05 11:22:36;;;;;;;5.10;3.50;;;;;;;16.26;32.25;93449.88;4933221;29;20047;-94
2022/03/05 11:25:02;;;;;;;4.93;3.70;;;;;;;16.21;32.29;93455.34;4924887;29;20066;-90
2022/03/05 11:27:29;;;;;;;6.28;3.85;;;;;;;16.24;32.08;93451.63;4934231;28;20477;-94
2022/03/05 11:30:04;;;;;;;5.45;4.00;;;;;;;16.21;32.06;93455.34;4920075;29;20039;-89